PWSweather.com
Personal Weather Stations
Station Observations
IBRABANT12
Leuven, BlandenBE 3052

LeuvenBlandenBE 3052

Lat: 50.8252218, Lon: 4.709682799999996

Elevation: 193

Station Type: Davis Vantage Vue

http://www.weerstationblanden.be

Latest ConditionsUpdated 5:40:17 PM GMT+01:01 Saturday, Oct 25, 2014
Currently Today's Max Today's Min Today's Average
Temperature 54.9°F12.7°C 58.1°F14.5°C 51.9°F11.1°C 54.4°F12.4°C
Dew Point 50.8°F10.4°C 55.8°F13.2°C 49.8°F9.9°C 52.6°F11.4°C
Winds Calm Calm 8.6 mph SW13.8 kmh SW - 4.6 mph 7.4 kmh
Wind Gusts -- 14.0 mph22.5 kmh - -
Humidity 86% 97% 79% 94%
Pressure 30.10 in1019.3 mb 30.10 in1019.3 mb 29.97 in1014.9 mb -
Precipitation - 0.06 in1.5 mm - -
Hour Temp Dew Point Humidity Winds Wind Gusts Pressure Precip Precip Rate Daily Precip Total
05:40 PM 54.9°F12.7°C 50.8°F10.4°C 86% Calm Calm -- 30.10 in1019.3 mb 0.00 in0.0 mm 0.00 in/hr0.0 mm/hr 0.06 in1.5 mm
05:30 PM 55.5°F13.1°C 49.8°F9.9°C 81% Calm Calm -- 30.10 in1019.3 mb 0.00 in0.0 mm 0.00 in/hr0.0 mm/hr 0.06 in1.5 mm
05:20 PM 55.9°F13.3°C 50.1°F10.1°C 81% Calm Calm 1.0 mph1.6 kmh 30.10 in1019.3 mb 0.00 in0.0 mm 0.00 in/hr0.0 mm/hr 0.06 in1.5 mm
05:10 PM 56.1°F13.4°C 50.0°F10.0°C 80% 1.8 mph WNW2.9 kmh WNW 3.0 mph4.8 kmh 30.10 in1019.3 mb 0.00 in0.0 mm 0.00 in/hr0.0 mm/hr 0.06 in1.5 mm
05:00 PM 56.4°F13.6°C 50.6°F10.3°C 81% 2.4 mph NW3.9 kmh NW 3.0 mph4.8 kmh 30.09 in1019.0 mb 0.00 in0.0 mm 0.00 in/hr0.0 mm/hr 0.06 in1.5 mm
04:50 PM 56.9°F13.8°C 51.1°F10.6°C 81% 1.8 mph NW2.9 kmh NW 2.0 mph3.2 kmh 30.09 in1019.0 mb 0.00 in0.0 mm 0.00 in/hr0.0 mm/hr 0.06 in1.5 mm
04:40 PM 57.4°F14.1°C 51.3°F10.7°C 80% 2.7 mph WSW4.3 kmh WSW 4.0 mph6.4 kmh 30.09 in1019.0 mb 0.00 in0.0 mm 0.00 in/hr0.0 mm/hr 0.06 in1.5 mm
04:30 PM 58.0°F14.4°C 51.9°F11.1°C 80% 1.3 mph W2.1 kmh W 2.0 mph3.2 kmh 30.08 in1018.6 mb 0.00 in0.0 mm 0.00 in/hr0.0 mm/hr 0.06 in1.5 mm
04:20 PM 57.8°F14.3°C 51.3°F10.7°C 79% 2.2 mph SW3.5 kmh SW 3.0 mph4.8 kmh 30.08 in1018.6 mb 0.00 in0.0 mm 0.00 in/hr0.0 mm/hr 0.06 in1.5 mm
04:10 PM 57.6°F14.2°C 51.1°F10.6°C 79% 4.3 mph W6.9 kmh W 5.0 mph8.0 kmh 30.08 in1018.6 mb 0.00 in0.0 mm 0.00 in/hr0.0 mm/hr 0.06 in1.5 mm
04:00 PM 57.3°F14.1°C 51.5°F10.8°C 81% 3.5 mph SW5.6 kmh SW 6.0 mph9.7 kmh 30.07 in1018.3 mb 0.00 in0.0 mm 0.00 in/hr0.0 mm/hr 0.06 in1.5 mm
03:50 PM 57.2°F14.0°C 52.1°F11.2°C 83% 4.3 mph SW6.9 kmh SW 6.0 mph9.7 kmh 30.07 in1018.3 mb 0.00 in0.0 mm 0.00 in/hr0.0 mm/hr 0.06 in1.5 mm
03:40 PM 57.4°F14.1°C 53.2°F11.8°C 86% 2.8 mph WNW4.5 kmh WNW 4.0 mph6.4 kmh 30.07 in1018.3 mb 0.00 in0.0 mm 0.00 in/hr0.0 mm/hr 0.06 in1.5 mm
03:30 PM 57.5°F14.2°C 54.3°F12.4°C 89% 2.4 mph WSW3.9 kmh WSW 3.0 mph4.8 kmh 30.07 in1018.3 mb 0.00 in0.0 mm 0.00 in/hr0.0 mm/hr 0.06 in1.5 mm
03:20 PM 57.4°F14.1°C 54.5°F12.5°C 90% 3.2 mph WSW5.1 kmh WSW 5.0 mph8.0 kmh 30.07 in1018.3 mb 0.00 in0.0 mm 0.00 in/hr0.0 mm/hr 0.06 in1.5 mm
03:10 PM 57.6°F14.2°C 54.7°F12.6°C 90% 4.9 mph SW7.9 kmh SW 6.0 mph9.7 kmh 30.06 in1017.9 mb 0.00 in0.0 mm 0.00 in/hr0.0 mm/hr 0.06 in1.5 mm
03:00 PM 57.8°F14.3°C 54.6°F12.6°C 89% 4.9 mph SW7.9 kmh SW 7.0 mph11.3 kmh 30.06 in1017.9 mb 0.00 in0.0 mm 0.00 in/hr0.0 mm/hr 0.06 in1.5 mm
02:50 PM 58.0°F14.4°C 55.1°F12.8°C 90% 5.2 mph SW8.4 kmh SW 6.0 mph9.7 kmh 30.06 in1017.9 mb 0.00 in0.0 mm 0.00 in/hr0.0 mm/hr 0.06 in1.5 mm
02:40 PM 58.1°F14.5°C 55.5°F13.1°C 91% 5.0 mph SSW8.0 kmh SSW 6.0 mph9.7 kmh 30.06 in1017.9 mb 0.00 in0.0 mm 0.00 in/hr0.0 mm/hr 0.06 in1.5 mm
02:30 PM 57.8°F14.3°C 55.2°F12.9°C 91% 7.5 mph SW12.1 kmh SW 10.0 mph16.1 kmh 30.06 in1017.9 mb 0.00 in0.0 mm 0.00 in/hr0.0 mm/hr 0.06 in1.5 mm
02:20 PM 57.6°F14.2°C 55.6°F13.1°C 93% 3.7 mph SW6.0 kmh SW 5.0 mph8.0 kmh 30.05 in1017.6 mb 0.00 in0.0 mm 0.00 in/hr0.0 mm/hr 0.06 in1.5 mm
02:10 PM 57.5°F14.2°C 55.5°F13.1°C 93% 5.1 mph WSW8.2 kmh WSW 8.0 mph12.9 kmh 30.05 in1017.6 mb 0.00 in0.0 mm 0.00 in/hr0.0 mm/hr 0.06 in1.5 mm
02:00 PM 57.3°F14.1°C 55.3°F12.9°C 93% 5.3 mph SW8.5 kmh SW 7.0 mph11.3 kmh 30.05 in1017.6 mb 0.00 in0.0 mm 0.00 in/hr0.0 mm/hr 0.06 in1.5 mm
01:50 PM 57.1°F13.9°C 55.7°F13.2°C 95% 3.1 mph SW5.0 kmh SW 9.0 mph14.5 kmh 30.05 in1017.6 mb 0.00 in0.0 mm 0.00 in/hr0.0 mm/hr 0.06 in1.5 mm
01:40 PM 56.9°F13.8°C 55.8°F13.2°C 96% 3.1 mph WSW5.0 kmh WSW 5.0 mph8.0 kmh 30.05 in1017.6 mb 0.00 in0.0 mm 0.00 in/hr0.0 mm/hr 0.06 in1.5 mm
01:30 PM 56.5°F13.6°C 55.4°F13.0°C 96% 4.7 mph SW7.6 kmh SW 6.0 mph9.7 kmh 30.06 in1017.9 mb 0.00 in0.0 mm 0.00 in/hr0.0 mm/hr 0.06 in1.5 mm
01:20 PM 56.2°F13.4°C 55.1°F12.8°C 96% 3.2 mph W5.1 kmh W 4.0 mph6.4 kmh 30.06 in1017.9 mb 0.00 in0.0 mm 0.00 in/hr0.0 mm/hr 0.06 in1.5 mm
01:10 PM 56.0°F13.3°C 54.9°F12.7°C 96% 4.9 mph SSW7.9 kmh SSW 6.0 mph9.7 kmh 30.05 in1017.6 mb 0.00 in0.0 mm 0.00 in/hr0.0 mm/hr 0.06 in1.5 mm
01:00 PM 55.9°F13.3°C 54.8°F12.7°C 96% 4.1 mph WSW6.6 kmh WSW 6.0 mph9.7 kmh 30.05 in1017.6 mb 0.00 in0.0 mm 0.00 in/hr0.0 mm/hr 0.06 in1.5 mm
12:50 PM 55.9°F13.3°C 54.8°F12.7°C 96% 5.7 mph WSW9.2 kmh WSW 7.0 mph11.3 kmh 30.05 in1017.6 mb 0.00 in0.0 mm 0.00 in/hr0.0 mm/hr 0.06 in1.5 mm
12:40 PM 55.8°F13.2°C 54.7°F12.6°C 96% 4.4 mph SW7.1 kmh SW 10.0 mph16.1 kmh 30.05 in1017.6 mb 0.00 in0.0 mm 0.00 in/hr0.0 mm/hr 0.06 in1.5 mm
12:30 PM 55.7°F13.2°C 54.6°F12.6°C 96% 6.1 mph SW9.8 kmh SW 9.0 mph14.5 kmh 30.05 in1017.6 mb 0.01 in0.3 mm 0.06 in/hr1.5 mm/hr 0.06 in1.5 mm
12:20 PM 55.5°F13.1°C 54.4°F12.4°C 96% 4.5 mph SW7.2 kmh SW 8.0 mph12.9 kmh 30.05 in1017.6 mb 0.00 in0.0 mm 0.00 in/hr0.0 mm/hr 0.05 in1.3 mm
12:10 PM 55.5°F13.1°C 54.4°F12.4°C 96% 4.2 mph SW6.8 kmh SW 5.0 mph8.0 kmh 30.05 in1017.6 mb 0.00 in0.0 mm 0.00 in/hr0.0 mm/hr 0.05 in1.3 mm
12:00 PM 55.5°F13.1°C 54.4°F12.4°C 96% 4.9 mph SW7.9 kmh SW 6.0 mph9.7 kmh 30.05 in1017.6 mb 0.00 in0.0 mm 0.00 in/hr0.0 mm/hr 0.05 in1.3 mm
11:50 AM 55.6°F13.1°C 54.5°F12.5°C 96% 2.3 mph SW3.7 kmh SW 3.0 mph4.8 kmh 30.05 in1017.6 mb 0.00 in0.0 mm 0.00 in/hr0.0 mm/hr 0.05 in1.3 mm
11:40 AM 55.6°F13.1°C 54.5°F12.5°C 96% 4.4 mph SW7.1 kmh SW 6.0 mph9.7 kmh 30.05 in1017.6 mb 0.00 in0.0 mm 0.00 in/hr0.0 mm/hr 0.05 in1.3 mm
11:30 AM 55.6°F13.1°C 54.2°F12.3°C 95% 3.7 mph SW6.0 kmh SW 5.0 mph8.0 kmh 30.05 in1017.6 mb 0.00 in0.0 mm 0.00 in/hr0.0 mm/hr 0.05 in1.3 mm
11:20 AM 55.5°F13.1°C 54.1°F12.3°C 95% 4.1 mph SW6.6 kmh SW 6.0 mph9.7 kmh 30.05 in1017.6 mb 0.01 in0.3 mm 0.06 in/hr1.5 mm/hr 0.05 in1.3 mm
11:10 AM 55.5°F13.1°C 54.1°F12.3°C 95% 4.6 mph WSW7.4 kmh WSW 5.0 mph8.0 kmh 30.05 in1017.6 mb 0.00 in0.0 mm 0.00 in/hr0.0 mm/hr 0.05 in1.3 mm
11:00 AM 55.4°F13.0°C 53.7°F12.1°C 94% 6.2 mph SW10.0 kmh SW 7.0 mph11.3 kmh 30.04 in1017.3 mb 0.00 in0.0 mm 0.00 in/hr0.0 mm/hr 0.04 in1.0 mm
10:50 AM 55.4°F13.0°C 54.0°F12.2°C 95% 2.9 mph SW4.7 kmh SW 5.0 mph8.0 kmh 30.04 in1017.3 mb 0.00 in0.0 mm 0.00 in/hr0.0 mm/hr 0.04 in1.0 mm
10:40 AM 55.3°F12.9°C 53.9°F12.2°C 95% 3.0 mph SSW4.8 kmh SSW 4.0 mph6.4 kmh 30.04 in1017.3 mb 0.00 in0.0 mm 0.00 in/hr0.0 mm/hr 0.04 in1.0 mm
10:30 AM 55.1°F12.8°C 54.0°F12.2°C 96% 2.8 mph S4.5 kmh S 4.0 mph6.4 kmh 30.04 in1017.3 mb 0.00 in0.0 mm 0.00 in/hr0.0 mm/hr 0.04 in1.0 mm
10:20 AM 54.7°F12.6°C 53.6°F12.0°C 96% 2.8 mph WSW4.5 kmh WSW 4.0 mph6.4 kmh 30.04 in1017.3 mb 0.00 in0.0 mm 0.00 in/hr0.0 mm/hr 0.04 in1.0 mm
10:10 AM 54.4°F12.4°C 53.3°F11.8°C 96% 3.1 mph SW5.0 kmh SW 5.0 mph8.0 kmh 30.04 in1017.3 mb 0.00 in0.0 mm 0.00 in/hr0.0 mm/hr 0.04 in1.0 mm
10:00 AM 54.2°F12.3°C 53.0°F11.7°C 96% 4.5 mph SW7.2 kmh SW 6.0 mph9.7 kmh 30.04 in1017.3 mb 0.00 in0.0 mm 0.00 in/hr0.0 mm/hr 0.04 in1.0 mm
09:50 AM 54.0°F12.2°C 53.2°F11.8°C 97% 4.2 mph SW6.8 kmh SW 6.0 mph9.7 kmh 30.04 in1017.3 mb 0.00 in0.0 mm 0.00 in/hr0.0 mm/hr 0.04 in1.0 mm
09:40 AM 53.8°F12.1°C 53.0°F11.7°C 97% 3.6 mph SSW5.8 kmh SSW 4.0 mph6.4 kmh 30.03 in1016.9 mb 0.00 in0.0 mm 0.00 in/hr0.0 mm/hr 0.04 in1.0 mm
09:30 AM 53.7°F12.1°C 52.8°F11.6°C 97% 4.2 mph SW6.8 kmh SW 4.0 mph6.4 kmh 30.03 in1016.9 mb 0.00 in0.0 mm 0.00 in/hr0.0 mm/hr 0.04 in1.0 mm
09:20 AM 53.5°F11.9°C 52.7°F11.5°C 97% 5.5 mph SW8.9 kmh SW 6.0 mph9.7 kmh 30.02 in1016.6 mb 0.00 in0.0 mm 0.00 in/hr0.0 mm/hr 0.04 in1.0 mm
09:10 AM 53.4°F11.9°C 52.6°F11.4°C 97% 5.6 mph SSW9.0 kmh SSW 7.0 mph11.3 kmh 30.03 in1016.9 mb 0.00 in0.0 mm 0.00 in/hr0.0 mm/hr 0.04 in1.0 mm
09:00 AM 53.3°F11.8°C 52.5°F11.4°C 97% 4.6 mph SSW7.4 kmh SSW 7.0 mph11.3 kmh 30.02 in1016.6 mb 0.00 in0.0 mm 0.00 in/hr0.0 mm/hr 0.04 in1.0 mm
08:50 AM 53.3°F11.8°C 52.4°F11.3°C 97% 4.6 mph SW7.4 kmh SW 5.0 mph8.0 kmh 30.02 in1016.6 mb 0.00 in0.0 mm 0.00 in/hr0.0 mm/hr 0.04 in1.0 mm
08:40 AM 53.2°F11.8°C 52.4°F11.3°C 97% 3.5 mph SW5.6 kmh SW 5.0 mph8.0 kmh 30.02 in1016.6 mb 0.00 in0.0 mm 0.00 in/hr0.0 mm/hr 0.04 in1.0 mm
08:30 AM 53.2°F11.8°C 52.4°F11.3°C 97% 3.6 mph SW5.8 kmh SW 5.0 mph8.0 kmh 30.02 in1016.6 mb 0.00 in0.0 mm 0.00 in/hr0.0 mm/hr 0.04 in1.0 mm
08:20 AM 53.2°F11.8°C 52.4°F11.3°C 97% 4.6 mph SW7.4 kmh SW 9.0 mph14.5 kmh 30.02 in1016.6 mb 0.00 in0.0 mm 0.00 in/hr0.0 mm/hr 0.04 in1.0 mm
08:10 AM 53.1°F11.7°C 52.3°F11.3°C 97% 6.0 mph S9.7 kmh S 9.0 mph14.5 kmh 30.02 in1016.6 mb 0.00 in0.0 mm 0.00 in/hr0.0 mm/hr 0.04 in1.0 mm
08:00 AM 53.1°F11.7°C 52.3°F11.3°C 97% 3.5 mph SW5.6 kmh SW 5.0 mph8.0 kmh 30.01 in1016.3 mb 0.00 in0.0 mm 0.00 in/hr0.0 mm/hr 0.04 in1.0 mm
07:50 AM 53.1°F11.7°C 52.3°F11.3°C 97% 3.4 mph SW5.5 kmh SW 5.0 mph8.0 kmh 30.01 in1016.3 mb 0.00 in0.0 mm 0.00 in/hr0.0 mm/hr 0.04 in1.0 mm
07:40 AM 53.1°F11.7°C 52.3°F11.3°C 97% 4.4 mph SW7.1 kmh SW 5.0 mph8.0 kmh 30.00 in1015.9 mb 0.00 in0.0 mm 0.00 in/hr0.0 mm/hr 0.04 in1.0 mm
07:30 AM 53.2°F11.8°C 52.4°F11.3°C 97% 4.1 mph SW6.6 kmh SW 7.0 mph11.3 kmh 30.00 in1015.9 mb 0.00 in0.0 mm 0.00 in/hr0.0 mm/hr 0.04 in1.0 mm
07:20 AM 53.2°F11.8°C 52.3°F11.3°C 97% 3.9 mph SW6.3 kmh SW 5.0 mph8.0 kmh 30.00 in1015.9 mb 0.00 in0.0 mm 0.00 in/hr0.0 mm/hr 0.04 in1.0 mm
07:10 AM 53.1°F11.7°C 52.3°F11.3°C 97% 4.9 mph SSW7.9 kmh SSW 6.0 mph9.7 kmh 30.00 in1015.9 mb 0.00 in0.0 mm 0.00 in/hr0.0 mm/hr 0.04 in1.0 mm
07:00 AM 53.1°F11.7°C 52.3°F11.3°C 97% 3.3 mph SW5.3 kmh SW 5.0 mph8.0 kmh 29.99 in1015.6 mb 0.00 in0.0 mm 0.00 in/hr0.0 mm/hr 0.04 in1.0 mm
06:50 AM 53.1°F11.7°C 52.0°F11.1°C 96% 3.0 mph SW4.8 kmh SW 5.0 mph8.0 kmh 29.99 in1015.6 mb 0.00 in0.0 mm 0.00 in/hr0.0 mm/hr 0.04 in1.0 mm
06:40 AM 53.1°F11.7°C 52.0°F11.1°C 96% 2.2 mph SSW3.5 kmh SSW 4.0 mph6.4 kmh 29.99 in1015.6 mb 0.00 in0.0 mm 0.00 in/hr0.0 mm/hr 0.04 in1.0 mm
06:30 AM 53.1°F11.7°C 52.0°F11.1°C 96% 3.3 mph SSW5.3 kmh SSW 4.0 mph6.4 kmh 29.99 in1015.6 mb 0.00 in0.0 mm 0.00 in/hr0.0 mm/hr 0.04 in1.0 mm
06:20 AM 53.1°F11.7°C 52.0°F11.1°C 96% 2.2 mph SW3.5 kmh SW 3.0 mph4.8 kmh 29.99 in1015.6 mb 0.00 in0.0 mm 0.00 in/hr0.0 mm/hr 0.04 in1.0 mm
06:10 AM 53.1°F11.7°C 52.0°F11.1°C 96% 3.8 mph SW6.1 kmh SW 5.0 mph8.0 kmh 29.99 in1015.6 mb 0.00 in0.0 mm 0.00 in/hr0.0 mm/hr 0.04 in1.0 mm
06:00 AM 53.1°F11.7°C 52.0°F11.1°C 96% 4.1 mph SSW6.6 kmh SSW 5.0 mph8.0 kmh 29.99 in1015.6 mb 0.00 in0.0 mm 0.00 in/hr0.0 mm/hr 0.04 in1.0 mm
05:50 AM 53.0°F11.7°C 51.9°F11.1°C 96% 4.9 mph SW7.9 kmh SW 7.0 mph11.3 kmh 29.99 in1015.6 mb 0.00 in0.0 mm 0.00 in/hr0.0 mm/hr 0.04 in1.0 mm
05:40 AM 53.1°F11.7°C 52.0°F11.1°C 96% 4.7 mph SW7.6 kmh SW 7.0 mph11.3 kmh 29.99 in1015.6 mb 0.00 in0.0 mm 0.00 in/hr0.0 mm/hr 0.04 in1.0 mm
05:30 AM 53.0°F11.7°C 51.9°F11.1°C 96% 5.4 mph SW8.7 kmh SW 8.0 mph12.9 kmh 29.99 in1015.6 mb 0.00 in0.0 mm 0.00 in/hr0.0 mm/hr 0.04 in1.0 mm
05:20 AM 53.0°F11.7°C 51.9°F11.1°C 96% 3.7 mph SW6.0 kmh SW 5.0 mph8.0 kmh 29.98 in1015.2 mb 0.00 in0.0 mm 0.00 in/hr0.0 mm/hr 0.04 in1.0 mm
05:10 AM 53.0°F11.7°C 51.9°F11.1°C 96% 3.3 mph SW5.3 kmh SW 5.0 mph8.0 kmh 29.98 in1015.2 mb 0.00 in0.0 mm 0.00 in/hr0.0 mm/hr 0.04 in1.0 mm
05:00 AM 53.0°F11.7°C 51.9°F11.1°C 96% 3.9 mph SW6.3 kmh SW 5.0 mph8.0 kmh 29.98 in1015.2 mb 0.00 in0.0 mm 0.00 in/hr0.0 mm/hr 0.04 in1.0 mm
04:50 AM 53.0°F11.7°C 51.9°F11.1°C 96% 4.7 mph SW7.6 kmh SW 8.0 mph12.9 kmh 29.98 in1015.2 mb 0.00 in0.0 mm 0.00 in/hr0.0 mm/hr 0.04 in1.0 mm
04:40 AM 53.0°F11.7°C 51.9°F11.1°C 96% 5.0 mph SW8.0 kmh SW 6.0 mph9.7 kmh 29.98 in1015.2 mb 0.00 in0.0 mm 0.00 in/hr0.0 mm/hr 0.04 in1.0 mm
04:30 AM 53.0°F11.7°C 51.9°F11.1°C 96% 6.7 mph SSW10.8 kmh SSW 9.0 mph14.5 kmh 29.98 in1015.2 mb 0.00 in0.0 mm 0.00 in/hr0.0 mm/hr 0.04 in1.0 mm
04:20 AM 53.0°F11.7°C 51.9°F11.1°C 96% 6.8 mph SW10.9 kmh SW 11.0 mph17.7 kmh 29.98 in1015.2 mb 0.00 in0.0 mm 0.00 in/hr0.0 mm/hr 0.04 in1.0 mm
04:10 AM 53.0°F11.7°C 51.9°F11.1°C 96% 7.4 mph SW11.9 kmh SW 9.0 mph14.5 kmh 29.98 in1015.2 mb 0.00 in0.0 mm 0.00 in/hr0.0 mm/hr 0.04 in1.0 mm
04:00 AM 52.9°F11.6°C 51.8°F11.0°C 96% 7.4 mph WSW11.9 kmh WSW 8.0 mph12.9 kmh 29.98 in1015.2 mb 0.00 in0.0 mm 0.00 in/hr0.0 mm/hr 0.04 in1.0 mm
03:50 AM 52.9°F11.6°C 51.8°F11.0°C 96% 7.1 mph SW11.4 kmh SW 10.0 mph16.1 kmh 29.98 in1015.2 mb 0.00 in0.0 mm 0.00 in/hr0.0 mm/hr 0.04 in1.0 mm
03:40 AM 52.9°F11.6°C 51.8°F11.0°C 96% 8.6 mph SW13.8 kmh SW 14.0 mph22.5 kmh 29.98 in1015.2 mb 0.00 in0.0 mm 0.00 in/hr0.0 mm/hr 0.04 in1.0 mm
03:30 AM 52.8°F11.6°C 51.7°F10.9°C 96% 6.0 mph SW9.7 kmh SW 11.0 mph17.7 kmh 29.98 in1015.2 mb 0.00 in0.0 mm 0.00 in/hr0.0 mm/hr 0.04 in1.0 mm
03:20 AM 52.8°F11.6°C 51.7°F10.9°C 96% 5.0 mph SW8.0 kmh SW 5.0 mph8.0 kmh 29.98 in1015.2 mb 0.00 in0.0 mm 0.00 in/hr0.0 mm/hr 0.04 in1.0 mm
03:10 AM 52.7°F11.5°C 51.6°F10.9°C 96% 7.2 mph SW11.6 kmh SW 10.0 mph16.1 kmh 29.98 in1015.2 mb 0.00 in0.0 mm 0.00 in/hr0.0 mm/hr 0.04 in1.0 mm
03:00 AM 52.7°F11.5°C 51.6°F10.9°C 96% 5.2 mph SW8.4 kmh SW 7.0 mph11.3 kmh 29.98 in1015.2 mb 0.00 in0.0 mm 0.00 in/hr0.0 mm/hr 0.04 in1.0 mm
02:50 AM 52.6°F11.4°C 51.5°F10.8°C 96% 7.6 mph SW12.2 kmh SW 10.0 mph16.1 kmh 29.97 in1014.9 mb 0.00 in0.0 mm 0.00 in/hr0.0 mm/hr 0.04 in1.0 mm
02:40 AM 52.6°F11.4°C 51.5°F10.8°C 96% 7.6 mph SW12.2 kmh SW 10.0 mph16.1 kmh 29.98 in1015.2 mb 0.00 in0.0 mm 0.00 in/hr0.0 mm/hr 0.04 in1.0 mm
02:30 AM 52.6°F11.4°C 51.5°F10.8°C 96% 6.1 mph SW9.8 kmh SW 8.0 mph12.9 kmh 29.97 in1014.9 mb 0.00 in0.0 mm 0.00 in/hr0.0 mm/hr 0.04 in1.0 mm
02:20 AM 52.5°F11.4°C 51.4°F10.8°C 96% 7.2 mph SW11.6 kmh SW 10.0 mph16.1 kmh 29.97 in1014.9 mb 0.00 in0.0 mm 0.00 in/hr0.0 mm/hr 0.04 in1.0 mm
02:10 AM 52.4°F11.3°C 51.3°F10.7°C 96% 5.8 mph SSW9.3 kmh SSW 7.0 mph11.3 kmh 29.97 in1014.9 mb 0.00 in0.0 mm 0.00 in/hr0.0 mm/hr 0.04 in1.0 mm
02:00 AM 52.4°F11.3°C 51.3°F10.7°C 96% 6.2 mph SW10.0 kmh SW 8.0 mph12.9 kmh 29.98 in1015.2 mb 0.00 in0.0 mm 0.00 in/hr0.0 mm/hr 0.04 in1.0 mm
01:50 AM 52.4°F11.3°C 51.3°F10.7°C 96% 7.1 mph SSW11.4 kmh SSW 9.0 mph14.5 kmh 29.98 in1015.2 mb 0.01 in0.3 mm 0.06 in/hr1.5 mm/hr 0.04 in1.0 mm
01:40 AM 52.4°F11.3°C 51.3°F10.7°C 96% 6.7 mph SW10.8 kmh SW 7.0 mph11.3 kmh 29.98 in1015.2 mb 0.00 in0.0 mm 0.00 in/hr0.0 mm/hr 0.03 in0.8 mm
01:30 AM 52.4°F11.3°C 51.3°F10.7°C 96% 6.8 mph S10.9 kmh S 9.0 mph14.5 kmh 29.98 in1015.2 mb 0.00 in0.0 mm 0.00 in/hr0.0 mm/hr 0.03 in0.8 mm
01:20 AM 52.3°F11.3°C 51.2°F10.7°C 96% 6.3 mph SW10.1 kmh SW 9.0 mph14.5 kmh 29.98 in1015.2 mb 0.00 in0.0 mm 0.00 in/hr0.0 mm/hr 0.03 in0.8 mm
01:10 AM 52.3°F11.3°C 51.2°F10.7°C 96% 6.4 mph SW10.3 kmh SW 9.0 mph14.5 kmh 29.98 in1015.2 mb 0.00 in0.0 mm 0.00 in/hr0.0 mm/hr 0.03 in0.8 mm
01:00 AM 52.2°F11.2°C 51.1°F10.6°C 96% 5.9 mph SW9.5 kmh SW 7.0 mph11.3 kmh 29.98 in1015.2 mb 0.00 in0.0 mm 0.00 in/hr0.0 mm/hr 0.03 in0.8 mm
12:50 AM 52.2°F11.2°C 51.1°F10.6°C 96% 5.6 mph SW9.0 kmh SW 7.0 mph11.3 kmh 29.98 in1015.2 mb 0.00 in0.0 mm 0.00 in/hr0.0 mm/hr 0.03 in0.8 mm
12:40 AM 52.1°F11.2°C 51.0°F10.6°C 96% 5.0 mph SSW8.0 kmh SSW 6.0 mph9.7 kmh 29.98 in1015.2 mb 0.00 in0.0 mm 0.00 in/hr0.0 mm/hr 0.03 in0.8 mm
12:30 AM 52.1°F11.2°C 51.0°F10.6°C 96% 7.3 mph SW11.7 kmh SW 8.0 mph12.9 kmh 29.98 in1015.2 mb 0.00 in0.0 mm 0.00 in/hr0.0 mm/hr 0.03 in0.8 mm
12:20 AM 52.0°F11.1°C 50.9°F10.5°C 96% 5.0 mph SW8.0 kmh SW 11.0 mph17.7 kmh 29.98 in1015.2 mb 0.01 in0.3 mm 0.06 in/hr1.5 mm/hr 0.03 in0.8 mm
12:10 AM 52.0°F11.1°C 50.9°F10.5°C 96% 5.9 mph SW9.5 kmh SW 8.0 mph12.9 kmh 29.98 in1015.2 mb 0.00 in0.0 mm 0.00 in/hr0.0 mm/hr 0.02 in0.5 mm
12:00 AM 51.9°F11.1°C 50.8°F10.4°C 96% 7.8 mph SSW12.6 kmh SSW 10.0 mph16.1 kmh 29.98 in1015.2 mb 0.00 in0.0 mm 0.00 in/hr0.0 mm/hr 0.02 in0.5 mm